sensor_id;sensor_type;location;lat;lon;timestamp;P1;durP1;ratioP1;P2;durP2;ratioP2
70253;SDS011;57649;42.968;1.608;2023-04-25T00:01:58;0.63;;;0.35;;
70253;SDS011;57649;42.968;1.608;2023-04-25T00:04:24;0.60;;;0.30;;
70253;SDS011;57649;42.968;1.608;2023-04-25T00:06:50;0.60;;;0.30;;
70253;SDS011;57649;42.968;1.608;2023-04-25T00:09:17;1.95;;;0.40;;
70253;SDS011;57649;42.968;1.608;2023-04-25T00:11:45;0.55;;;0.40;;
70253;SDS011;57649;42.968;1.608;2023-04-25T00:14:13;0.40;;;0.40;;
70253;SDS011;57649;42.968;1.608;2023-04-25T00:16:39;0.60;;;0.40;;
70253;SDS011;57649;42.968;1.608;2023-04-25T00:19:06;0.88;;;0.45;;
70253;SDS011;57649;42.968;1.608;2023-04-25T00:21:32;1.00;;;0.50;;
70253;SDS011;57649;42.968;1.608;2023-04-25T00:23:58;0.50;;;0.38;;
70253;SDS011;57649;42.968;1.608;2023-04-25T00:26:24;0.50;;;0.40;;
70253;SDS011;57649;42.968;1.608;2023-04-25T00:28:50;0.40;;;0.40;;
70253;SDS011;57649;42.968;1.608;2023-04-25T00:31:15;0.32;;;0.32;;
70253;SDS011;57649;42.968;1.608;2023-04-25T00:33:40;1.75;;;0.40;;
70253;SDS011;57649;42.968;1.608;2023-04-25T00:36:06;1.02;;;0.70;;
70253;SDS011;57649;42.968;1.608;2023-04-25T00:38:32;0.50;;;0.50;;
70253;SDS011;57649;42.968;1.608;2023-04-25T00:40:57;1.48;;;0.50;;
70253;SDS011;57649;42.968;1.608;2023-04-25T00:43:25;0.60;;;0.40;;
70253;SDS011;57649;42.968;1.608;2023-04-25T00:45:51;0.85;;;0.60;;
70253;SDS011;57649;42.968;1.608;2023-04-25T00:48:17;2.03;;;0.85;;
70253;SDS011;57649;42.968;1.608;2023-04-25T00:50:44;2.10;;;1.10;;
70253;SDS011;57649;42.968;1.608;2023-04-25T00:53:16;1.45;;;0.95;;
70253;SDS011;57649;42.968;1.608;2023-04-25T00:55:42;3.55;;;1.50;;
70253;SDS011;57649;42.968;1.608;2023-04-25T00:58:07;2.10;;;1.33;;
70253;SDS011;57649;42.968;1.608;2023-04-25T01:00:33;3.13;;;1.40;;
70253;SDS011;57649;42.968;1.608;2023-04-25T01:02:58;1.70;;;1.02;;
70253;SDS011;57649;42.968;1.608;2023-04-25T01:05:25;2.88;;;1.10;;
70253;SDS011;57649;42.968;1.608;2023-04-25T01:07:50;1.92;;;0.90;;
70253;SDS011;57649;42.968;1.608;2023-04-25T01:10:16;1.48;;;0.68;;
70253;SDS011;57649;42.968;1.608;2023-04-25T01:12:41;0.90;;;0.63;;
70253;SDS011;57649;42.968;1.608;2023-04-25T01:15:07;1.80;;;1.23;;
70253;SDS011;57649;42.968;1.608;2023-04-25T01:17:34;1.40;;;0.90;;
70253;SDS011;57649;42.968;1.608;2023-04-25T01:20:01;3.10;;;1.50;;
70253;SDS011;57649;42.968;1.608;2023-04-25T01:22:28;1.73;;;1.00;;
70253;SDS011;57649;42.968;1.608;2023-04-25T01:24:54;3.03;;;1.20;;
70253;SDS011;57649;42.968;1.608;2023-04-25T01:27:19;1.65;;;1.20;;
70253;SDS011;57649;42.968;1.608;2023-04-25T01:29:46;1.75;;;1.00;;
70253;SDS011;57649;42.968;1.608;2023-04-25T01:32:15;1.52;;;1.10;;
70253;SDS011;57649;42.968;1.608;2023-04-25T01:34:41;3.55;;;1.10;;
70253;SDS011;57649;42.968;1.608;2023-04-25T01:37:06;8.35;;;1.00;;
70253;SDS011;57649;42.968;1.608;2023-04-25T01:39:31;0.70;;;0.50;;
70253;SDS011;57649;42.968;1.608;2023-04-25T01:41:58;2.13;;;0.90;;
70253;SDS011;57649;42.968;1.608;2023-04-25T01:44:24;1.55;;;0.70;;
70253;SDS011;57649;42.968;1.608;2023-04-25T01:46:50;1.70;;;0.57;;
70253;SDS011;57649;42.968;1.608;2023-04-25T01:49:15;2.28;;;0.73;;
70253;SDS011;57649;42.968;1.608;2023-04-25T01:51:41;2.70;;;0.63;;
70253;SDS011;57649;42.968;1.608;2023-04-25T01:54:07;5.38;;;0.60;;
70253;SDS011;57649;42.968;1.608;2023-04-25T01:56:36;2.17;;;0.90;;
70253;SDS011;57649;42.968;1.608;2023-04-25T01:59:02;0.93;;;0.70;;
70253;SDS011;57649;42.968;1.608;2023-04-25T02:01:29;0.73;;;0.52;;
70253;SDS011;57649;42.968;1.608;2023-04-25T02:03:55;1.10;;;0.70;;
70253;SDS011;57649;42.968;1.608;2023-04-25T02:06:20;1.95;;;0.70;;
70253;SDS011;57649;42.968;1.608;2023-04-25T02:08:46;3.17;;;0.80;;
70253;SDS011;57649;42.968;1.608;2023-04-25T02:11:11;1.13;;;0.90;;
70253;SDS011;57649;42.968;1.608;2023-04-25T02:13:36;2.10;;;1.02;;
70253;SDS011;57649;42.968;1.608;2023-04-25T02:16:02;1.40;;;0.90;;
70253;SDS011;57649;42.968;1.608;2023-04-25T02:18:27;1.48;;;0.82;;
70253;SDS011;57649;42.968;1.608;2023-04-25T02:20:53;1.60;;;0.75;;
70253;SDS011;57649;42.968;1.608;2023-04-25T02:23:18;1.85;;;1.00;;
70253;SDS011;57649;42.968;1.608;2023-04-25T02:25:44;0.40;;;0.40;;
70253;SDS011;57649;42.968;1.608;2023-04-25T02:28:09;0.65;;;0.22;;
70253;SDS011;57649;42.968;1.608;2023-04-25T02:30:35;1.65;;;0.20;;
70253;SDS011;57649;42.968;1.608;2023-04-25T02:33:01;1.15;;;0.32;;
70253;SDS011;57649;42.968;1.608;2023-04-25T02:35:26;0.30;;;0.30;;
70253;SDS011;57649;42.968;1.608;2023-04-25T02:37:51;0.50;;;0.30;;
70253;SDS011;57649;42.968;1.608;2023-04-25T02:40:17;0.30;;;0.30;;
70253;SDS011;57649;42.968;1.608;2023-04-25T02:42:42;0.30;;;0.30;;
70253;SDS011;57649;42.968;1.608;2023-04-25T02:45:10;0.40;;;0.30;;
70253;SDS011;57649;42.968;1.608;2023-04-25T02:47:36;0.77;;;0.38;;
70253;SDS011;57649;42.968;1.608;2023-04-25T02:50:01;1.00;;;0.32;;
70253;SDS011;57649;42.968;1.608;2023-04-25T02:52:27;0.30;;;0.30;;
70253;SDS011;57649;42.968;1.608;2023-04-25T02:54:52;0.22;;;0.20;;
70253;SDS011;57649;42.968;1.608;2023-04-25T02:57:18;3.20;;;0.43;;
70253;SDS011;57649;42.968;1.608;2023-04-25T02:59:43;0.90;;;0.40;;
70253;SDS011;57649;42.968;1.608;2023-04-25T03:02:09;0.70;;;0.30;;
70253;SDS011;57649;42.968;1.608;2023-04-25T03:04:34;0.30;;;0.30;;
70253;SDS011;57649;42.968;1.608;2023-04-25T03:07:00;2.10;;;1.00;;
70253;SDS011;57649;42.968;1.608;2023-04-25T03:09:25;3.10;;;1.30;;
70253;SDS011;57649;42.968;1.608;2023-04-25T03:11:51;1.88;;;1.25;;
70253;SDS011;57649;42.968;1.608;2023-04-25T03:14:16;1.67;;;1.25;;
70253;SDS011;57649;42.968;1.608;2023-04-25T03:16:42;2.50;;;1.40;;
70253;SDS011;57649;42.968;1.608;2023-04-25T03:19:07;2.25;;;1.70;;
70253;SDS011;57649;42.968;1.608;2023-04-25T03:21:33;2.72;;;1.95;;
70253;SDS011;57649;42.968;1.608;2023-04-25T03:24:00;4.45;;;3.08;;
70253;SDS011;57649;42.968;1.608;2023-04-25T03:26:27;3.75;;;1.27;;
70253;SDS011;57649;42.968;1.608;2023-04-25T03:28:52;8.05;;;7.25;;
70253;SDS011;57649;42.968;1.608;2023-04-25T03:31:18;4.78;;;2.83;;
70253;SDS011;57649;42.968;1.608;2023-04-25T03:33:43;4.82;;;2.67;;
70253;SDS011;57649;42.968;1.608;2023-04-25T03:36:11;3.30;;;2.00;;
70253;SDS011;57649;42.968;1.608;2023-04-25T03:38:36;7.63;;;1.90;;
70253;SDS011;57649;42.968;1.608;2023-04-25T03:41:02;1.73;;;1.40;;
70253;SDS011;57649;42.968;1.608;2023-04-25T03:43:27;5.55;;;2.03;;
70253;SDS011;57649;42.968;1.608;2023-04-25T03:45:53;2.70;;;1.70;;
70253;SDS011;57649;42.968;1.608;2023-04-25T03:48:18;4.30;;;2.58;;
70253;SDS011;57649;42.968;1.608;2023-04-25T03:50:46;6.95;;;3.15;;
70253;SDS011;57649;42.968;1.608;2023-04-25T03:53:12;3.60;;;2.50;;
70253;SDS011;57649;42.968;1.608;2023-04-25T03:55:37;4.05;;;3.00;;
70253;SDS011;57649;42.968;1.608;2023-04-25T03:58:02;6.18;;;3.60;;
70253;SDS011;57649;42.968;1.608;2023-04-25T04:00:30;5.60;;;3.58;;
70253;SDS011;57649;42.968;1.608;2023-04-25T04:02:55;5.90;;;3.10;;
70253;SDS011;57649;42.968;1.608;2023-04-25T04:05:21;4.53;;;3.10;;
70253;SDS011;57649;42.968;1.608;2023-04-25T04:07:47;4.50;;;2.83;;
70253;SDS011;57649;42.968;1.608;2023-04-25T04:10:12;3.13;;;2.42;;
70253;SDS011;57649;42.968;1.608;2023-04-25T04:12:38;2.88;;;2.10;;
70253;SDS011;57649;42.968;1.608;2023-04-25T04:15:04;3.95;;;2.42;;
70253;SDS011;57649;42.968;1.608;2023-04-25T04:17:33;3.67;;;2.33;;
70253;SDS011;57649;42.968;1.608;2023-04-25T04:19:59;3.33;;;2.63;;
70253;SDS011;57649;42.968;1.608;2023-04-25T04:22:25;4.95;;;2.97;;
70253;SDS011;57649;42.968;1.608;2023-04-25T04:24:50;4.88;;;2.90;;
70253;SDS011;57649;42.968;1.608;2023-04-25T04:27:19;3.63;;;2.53;;
70253;SDS011;57649;42.968;1.608;2023-04-25T04:29:46;3.60;;;2.90;;
70253;SDS011;57649;42.968;1.608;2023-04-25T04:32:12;8.90;;;3.03;;
70253;SDS011;57649;42.968;1.608;2023-04-25T04:34:38;4.47;;;2.92;;
70253;SDS011;57649;42.968;1.608;2023-04-25T04:37:06;4.05;;;3.47;;
70253;SDS011;57649;42.968;1.608;2023-04-25T04:39:32;5.80;;;2.78;;
70253;SDS011;57649;42.968;1.608;2023-04-25T04:41:59;4.75;;;3.25;;
70253;SDS011;57649;42.968;1.608;2023-04-25T04:44:26;3.67;;;2.92;;
70253;SDS011;57649;42.968;1.608;2023-04-25T04:46:52;3.35;;;2.45;;
70253;SDS011;57649;42.968;1.608;2023-04-25T04:49:17;3.08;;;2.55;;
70253;SDS011;57649;42.968;1.608;2023-04-25T04:51:42;4.00;;;2.67;;
70253;SDS011;57649;42.968;1.608;2023-04-25T04:54:11;5.93;;;3.10;;
70253;SDS011;57649;42.968;1.608;2023-04-25T04:56:37;5.25;;;3.13;;
70253;SDS011;57649;42.968;1.608;2023-04-25T04:59:03;4.88;;;3.10;;
70253;SDS011;57649;42.968;1.608;2023-04-25T05:01:28;3.47;;;2.80;;
70253;SDS011;57649;42.968;1.608;2023-04-25T05:03:55;3.75;;;2.65;;
70253;SDS011;57649;42.968;1.608;2023-04-25T05:06:25;7.45;;;2.78;;
70253;SDS011;57649;42.968;1.608;2023-04-25T05:08:51;6.35;;;3.20;;
70253;SDS011;57649;42.968;1.608;2023-04-25T05:11:17;9.02;;;5.10;;
70253;SDS011;57649;42.968;1.608;2023-04-25T05:13:43;4.22;;;3.22;;
70253;SDS011;57649;42.968;1.608;2023-04-25T05:16:08;3.58;;;3.00;;
70253;SDS011;57649;42.968;1.608;2023-04-25T05:18:34;4.63;;;3.40;;
70253;SDS011;57649;42.968;1.608;2023-04-25T05:21:00;4.47;;;3.63;;
70253;SDS011;57649;42.968;1.608;2023-04-25T05:23:25;4.40;;;3.40;;
70253;SDS011;57649;42.968;1.608;2023-04-25T05:25:52;3.88;;;2.78;;
70253;SDS011;57649;42.968;1.608;2023-04-25T05:28:20;5.57;;;3.17;;
70253;SDS011;57649;42.968;1.608;2023-04-25T05:30:46;3.22;;;2.75;;
70253;SDS011;57649;42.968;1.608;2023-04-25T05:33:11;3.97;;;2.75;;
70253;SDS011;57649;42.968;1.608;2023-04-25T05:35:37;5.82;;;2.97;;
70253;SDS011;57649;42.968;1.608;2023-04-25T05:38:02;6.53;;;2.60;;
70253;SDS011;57649;42.968;1.608;2023-04-25T05:40:27;4.35;;;3.47;;
70253;SDS011;57649;42.968;1.608;2023-04-25T05:42:53;5.00;;;2.85;;
70253;SDS011;57649;42.968;1.608;2023-04-25T05:45:18;3.67;;;2.83;;
70253;SDS011;57649;42.968;1.608;2023-04-25T05:47:44;3.53;;;2.78;;
70253;SDS011;57649;42.968;1.608;2023-04-25T05:50:09;3.28;;;2.50;;
70253;SDS011;57649;42.968;1.608;2023-04-25T05:52:34;3.08;;;2.00;;
70253;SDS011;57649;42.968;1.608;2023-04-25T05:55:00;3.33;;;2.25;;
70253;SDS011;57649;42.968;1.608;2023-04-25T05:57:26;4.35;;;2.55;;
70253;SDS011;57649;42.968;1.608;2023-04-25T05:59:52;3.17;;;2.60;;
70253;SDS011;57649;42.968;1.608;2023-04-25T06:02:18;2.40;;;1.88;;
70253;SDS011;57649;42.968;1.608;2023-04-25T06:04:47;2.67;;;2.00;;
70253;SDS011;57649;42.968;1.608;2023-04-25T06:07:14;4.53;;;2.17;;
70253;SDS011;57649;42.968;1.608;2023-04-25T06:09:39;1.70;;;1.40;;
70253;SDS011;57649;42.968;1.608;2023-04-25T06:12:05;2.33;;;1.40;;
70253;SDS011;57649;42.968;1.608;2023-04-25T06:14:32;2.70;;;1.40;;
70253;SDS011;57649;42.968;1.608;2023-04-25T06:16:58;3.83;;;2.80;;
70253;SDS011;57649;42.968;1.608;2023-04-25T06:19:23;3.65;;;2.60;;
70253;SDS011;57649;42.968;1.608;2023-04-25T06:21:49;2.17;;;1.48;;
70253;SDS011;57649;42.968;1.608;2023-04-25T06:24:14;3.83;;;3.17;;
70253;SDS011;57649;42.968;1.608;2023-04-25T06:26:39;2.63;;;2.20;;
70253;SDS011;57649;42.968;1.608;2023-04-25T06:29:05;2.80;;;2.15;;
70253;SDS011;57649;42.968;1.608;2023-04-25T06:31:30;3.05;;;2.35;;
70253;SDS011;57649;42.968;1.608;2023-04-25T06:33:57;2.10;;;1.60;;
70253;SDS011;57649;42.968;1.608;2023-04-25T06:36:23;12.45;;;9.40;;
70253;SDS011;57649;42.968;1.608;2023-04-25T06:38:53;3.95;;;2.80;;
70253;SDS011;57649;42.968;1.608;2023-04-25T06:41:19;2.97;;;1.80;;
70253;SDS011;57649;42.968;1.608;2023-04-25T06:43:45;3.08;;;1.33;;
70253;SDS011;57649;42.968;1.608;2023-04-25T06:46:10;6.35;;;1.60;;
70253;SDS011;57649;42.968;1.608;2023-04-25T06:48:36;7.88;;;2.05;;
70253;SDS011;57649;42.968;1.608;2023-04-25T06:51:01;7.03;;;2.33;;
70253;SDS011;57649;42.968;1.608;2023-04-25T06:53:27;5.97;;;3.50;;
70253;SDS011;57649;42.968;1.608;2023-04-25T06:55:52;3.72;;;1.80;;
70253;SDS011;57649;42.968;1.608;2023-04-25T06:58:18;3.65;;;1.80;;
70253;SDS011;57649;42.968;1.608;2023-04-25T07:00:44;2.20;;;2.00;;
70253;SDS011;57649;42.968;1.608;2023-04-25T07:03:09;2.78;;;1.70;;
70253;SDS011;57649;42.968;1.608;2023-04-25T07:05:35;5.45;;;1.88;;
70253;SDS011;57649;42.968;1.608;2023-04-25T07:08:00;3.42;;;1.60;;
70253;SDS011;57649;42.968;1.608;2023-04-25T07:10:26;4.00;;;1.48;;
70253;SDS011;57649;42.968;1.608;2023-04-25T07:12:51;4.35;;;1.70;;
70253;SDS011;57649;42.968;1.608;2023-04-25T07:15:17;2.72;;;1.60;;
70253;SDS011;57649;42.968;1.608;2023-04-25T07:17:42;2.47;;;1.05;;
70253;SDS011;57649;42.968;1.608;2023-04-25T07:20:08;2.00;;;1.50;;
70253;SDS011;57649;42.968;1.608;2023-04-25T07:22:34;2.28;;;1.40;;
70253;SDS011;57649;42.968;1.608;2023-04-25T07:25:00;2.85;;;1.73;;
70253;SDS011;57649;42.968;1.608;2023-04-25T07:27:25;6.22;;;1.98;;
70253;SDS011;57649;42.968;1.608;2023-04-25T07:29:51;9.65;;;1.88;;
70253;SDS011;57649;42.968;1.608;2023-04-25T07:32:16;2.45;;;1.33;;
70253;SDS011;57649;42.968;1.608;2023-04-25T07:34:42;6.22;;;1.90;;
70253;SDS011;57649;42.968;1.608;2023-04-25T07:37:07;4.50;;;1.60;;
70253;SDS011;57649;42.968;1.608;2023-04-25T07:39:32;4.90;;;1.83;;
70253;SDS011;57649;42.968;1.608;2023-04-25T07:41:58;5.25;;;2.30;;
70253;SDS011;57649;42.968;1.608;2023-04-25T07:44:24;6.00;;;2.60;;
70253;SDS011;57649;42.968;1.608;2023-04-25T07:46:50;4.43;;;2.25;;
70253;SDS011;57649;42.968;1.608;2023-04-25T07:49:15;4.20;;;1.90;;
70253;SDS011;57649;42.968;1.608;2023-04-25T07:51:41;5.28;;;1.95;;
70253;SDS011;57649;42.968;1.608;2023-04-25T07:54:08;2.10;;;1.50;;
70253;SDS011;57649;42.968;1.608;2023-04-25T07:56:34;3.47;;;1.67;;
70253;SDS011;57649;42.968;1.608;2023-04-25T07:59:00;3.40;;;1.55;;
70253;SDS011;57649;42.968;1.608;2023-04-25T08:01:25;3.33;;;1.65;;
70253;SDS011;57649;42.968;1.608;2023-04-25T08:03:51;4.57;;;1.98;;
70253;SDS011;57649;42.968;1.608;2023-04-25T08:06:17;6.85;;;1.70;;
70253;SDS011;57649;42.968;1.608;2023-04-25T08:08:42;3.28;;;1.33;;
70253;SDS011;57649;42.968;1.608;2023-04-25T08:11:08;4.55;;;2.60;;
70253;SDS011;57649;42.968;1.608;2023-04-25T08:13:33;3.38;;;1.38;;
70253;SDS011;57649;42.968;1.608;2023-04-25T08:15:59;7.20;;;2.40;;
70253;SDS011;57649;42.968;1.608;2023-04-25T08:18:24;10.05;;;2.45;;
70253;SDS011;57649;42.968;1.608;2023-04-25T08:20:50;5.10;;;2.10;;
70253;SDS011;57649;42.968;1.608;2023-04-25T08:23:15;4.43;;;1.67;;
70253;SDS011;57649;42.968;1.608;2023-04-25T08:25:40;4.82;;;2.25;;
70253;SDS011;57649;42.968;1.608;2023-04-25T08:28:06;4.75;;;2.78;;
70253;SDS011;57649;42.968;1.608;2023-04-25T08:30:31;5.70;;;2.20;;
70253;SDS011;57649;42.968;1.608;2023-04-25T08:32:57;5.78;;;1.98;;
70253;SDS011;57649;42.968;1.608;2023-04-25T08:35:22;5.82;;;1.75;;
70253;SDS011;57649;42.968;1.608;2023-04-25T08:37:48;2.70;;;1.30;;
70253;SDS011;57649;42.968;1.608;2023-04-25T08:40:14;4.15;;;2.47;;
70253;SDS011;57649;42.968;1.608;2023-04-25T08:42:41;2.25;;;1.13;;
70253;SDS011;57649;42.968;1.608;2023-04-25T08:45:07;8.60;;;3.10;;
70253;SDS011;57649;42.968;1.608;2023-04-25T08:47:34;0.55;;;0.50;;
70253;SDS011;57649;42.968;1.608;2023-04-25T08:50:02;2.95;;;0.50;;
70253;SDS011;57649;42.968;1.608;2023-04-25T08:52:30;3.28;;;0.77;;
70253;SDS011;57649;42.968;1.608;2023-04-25T08:55:00;5.47;;;1.95;;
70253;SDS011;57649;42.968;1.608;2023-04-25T08:57:27;2.00;;;0.82;;
70253;SDS011;57649;42.968;1.608;2023-04-25T08:59:54;3.80;;;1.42;;
70253;SDS011;57649;42.968;1.608;2023-04-25T09:02:22;4.57;;;1.45;;
70253;SDS011;57649;42.968;1.608;2023-04-25T09:04:48;2.13;;;0.80;;
70253;SDS011;57649;42.968;1.608;2023-04-25T09:07:14;1.63;;;1.15;;
70253;SDS011;57649;42.968;1.608;2023-04-25T09:09:43;3.47;;;1.55;;
70253;SDS011;57649;42.968;1.608;2023-04-25T09:12:09;3.35;;;1.10;;
70253;SDS011;57649;42.968;1.608;2023-04-25T09:14:35;3.83;;;0.70;;
70253;SDS011;57649;42.968;1.608;2023-04-25T09:17:01;1.20;;;0.50;;
70253;SDS011;57649;42.968;1.608;2023-04-25T09:19:31;2.75;;;0.80;;
70253;SDS011;57649;42.968;1.608;2023-04-25T09:22:04;2.40;;;0.68;;
70253;SDS011;57649;42.968;1.608;2023-04-25T09:24:39;5.75;;;3.30;;
70253;SDS011;57649;42.968;1.608;2023-04-25T09:27:11;5.18;;;0.82;;
70253;SDS011;57649;42.968;1.608;2023-04-25T09:29:39;1.30;;;0.77;;
70253;SDS011;57649;42.968;1.608;2023-04-25T09:34:50;2.00;;;1.73;;
70253;SDS011;57649;42.968;1.608;2023-04-25T09:37:17;0.90;;;0.60;;
70253;SDS011;57649;42.968;1.608;2023-04-25T09:39:45;3.75;;;0.70;;
70253;SDS011;57649;42.968;1.608;2023-04-25T09:42:12;2.15;;;0.60;;
70253;SDS011;57649;42.968;1.608;2023-04-25T09:44:42;0.88;;;0.57;;
70253;SDS011;57649;42.968;1.608;2023-04-25T09:47:10;0.90;;;0.40;;
70253;SDS011;57649;42.968;1.608;2023-04-25T09:49:38;2.60;;;1.00;;
70253;SDS011;57649;42.968;1.608;2023-04-25T09:52:08;1.13;;;0.50;;
70253;SDS011;57649;42.968;1.608;2023-04-25T09:54:37;1.20;;;0.80;;
70253;SDS011;57649;42.968;1.608;2023-04-25T09:57:07;2.13;;;0.98;;
70253;SDS011;57649;42.968;1.608;2023-04-25T09:59:37;1.05;;;0.40;;
70253;SDS011;57649;42.968;1.608;2023-04-25T10:02:04;3.40;;;0.70;;
70253;SDS011;57649;42.968;1.608;2023-04-25T10:04:32;1.65;;;0.80;;
70253;SDS011;57649;42.968;1.608;2023-04-25T10:07:00;1.40;;;0.50;;
70253;SDS011;57649;42.968;1.608;2023-04-25T10:09:28;1.38;;;0.60;;
70253;SDS011;57649;42.968;1.608;2023-04-25T10:11:56;1.33;;;1.23;;
70253;SDS011;57649;42.968;1.608;2023-04-25T10:14:23;2.40;;;1.00;;
70253;SDS011;57649;42.968;1.608;2023-04-25T10:16:49;7.53;;;0.55;;
70253;SDS011;57649;42.968;1.608;2023-04-25T10:19:18;1.27;;;0.60;;
70253;SDS011;57649;42.968;1.608;2023-04-25T10:24:46;4.38;;;0.75;;
70253;SDS011;57649;42.968;1.608;2023-04-25T10:27:11;4.80;;;1.20;;
70253;SDS011;57649;42.968;1.608;2023-04-25T10:29:38;3.00;;;1.20;;
70253;SDS011;57649;42.968;1.608;2023-04-25T10:32:03;1.38;;;0.60;;
70253;SDS011;57649;42.968;1.608;2023-04-25T10:34:42;3.58;;;1.02;;
70253;SDS011;57649;42.968;1.608;2023-04-25T10:37:12;3.30;;;0.80;;
70253;SDS011;57649;42.968;1.608;2023-04-25T10:39:39;0.80;;;0.50;;
70253;SDS011;57649;42.968;1.608;2023-04-25T10:42:05;2.08;;;0.60;;
70253;SDS011;57649;42.968;1.608;2023-04-25T10:44:32;0.47;;;0.40;;
70253;SDS011;57649;42.968;1.608;2023-04-25T10:47:01;2.03;;;1.25;;
70253;SDS011;57649;42.968;1.608;2023-04-25T10:55:02;1.25;;;0.50;;
70253;SDS011;57649;42.968;1.608;2023-04-25T10:57:33;1.00;;;0.63;;
70253;SDS011;57649;42.968;1.608;2023-04-25T11:00:05;1.55;;;1.10;;
70253;SDS011;57649;42.968;1.608;2023-04-25T11:02:31;3.05;;;0.70;;
70253;SDS011;57649;42.968;1.608;2023-04-25T11:04:57;1.30;;;0.90;;
70253;SDS011;57649;42.968;1.608;2023-04-25T11:07:33;1.45;;;0.80;;
70253;SDS011;57649;42.968;1.608;2023-04-25T11:10:05;2.05;;;0.93;;
70253;SDS011;57649;42.968;1.608;2023-04-25T11:12:31;1.60;;;0.98;;
70253;SDS011;57649;42.968;1.608;2023-04-25T11:15:00;1.92;;;1.30;;
70253;SDS011;57649;42.968;1.608;2023-04-25T11:17:28;0.80;;;0.47;;
70253;SDS011;57649;42.968;1.608;2023-04-25T11:19:55;1.80;;;0.80;;
70253;SDS011;57649;42.968;1.608;2023-04-25T11:22:21;0.80;;;0.50;;
70253;SDS011;57649;42.968;1.608;2023-04-25T11:24:48;3.08;;;1.17;;
70253;SDS011;57649;42.968;1.608;2023-04-25T11:27:13;4.47;;;1.40;;
70253;SDS011;57649;42.968;1.608;2023-04-25T11:29:40;1.52;;;1.00;;
70253;SDS011;57649;42.968;1.608;2023-04-25T11:32:05;4.65;;;0.90;;
70253;SDS011;57649;42.968;1.608;2023-04-25T11:34:32;6.68;;;2.58;;
70253;SDS011;57649;42.968;1.608;2023-04-25T11:36:58;3.67;;;1.80;;
70253;SDS011;57649;42.968;1.608;2023-04-25T11:39:25;1.60;;;1.05;;
70253;SDS011;57649;42.968;1.608;2023-04-25T11:41:51;1.60;;;1.27;;
70253;SDS011;57649;42.968;1.608;2023-04-25T11:44:17;1.40;;;0.80;;
70253;SDS011;57649;42.968;1.608;2023-04-25T11:46:44;3.67;;;1.25;;
70253;SDS011;57649;42.968;1.608;2023-04-25T11:49:10;1.65;;;1.00;;
70253;SDS011;57649;42.968;1.608;2023-04-25T11:51:42;0.90;;;0.63;;
70253;SDS011;57649;42.968;1.608;2023-04-25T11:54:08;3.17;;;1.95;;
70253;SDS011;57649;42.968;1.608;2023-04-25T11:56:34;0.65;;;0.55;;
70253;SDS011;57649;42.968;1.608;2023-04-25T11:59:00;3.70;;;1.90;;
70253;SDS011;57649;42.968;1.608;2023-04-25T12:01:36;0.93;;;0.68;;
70253;SDS011;57649;42.968;1.608;2023-04-25T12:06:38;1.98;;;0.60;;
70253;SDS011;57649;42.968;1.608;2023-04-25T12:09:07;2.40;;;1.20;;
70253;SDS011;57649;42.968;1.608;2023-04-25T12:14:09;1.50;;;1.20;;
70253;SDS011;57649;42.968;1.608;2023-04-25T12:19:07;1.70;;;1.10;;
70253;SDS011;57649;42.968;1.608;2023-04-25T12:21:33;1.50;;;1.02;;
70253;SDS011;57649;42.968;1.608;2023-04-25T12:24:12;3.85;;;1.00;;
70253;SDS011;57649;42.968;1.608;2023-04-25T12:26:46;1.85;;;0.80;;
70253;SDS011;57649;42.968;1.608;2023-04-25T12:29:17;1.50;;;0.70;;
70253;SDS011;57649;42.968;1.608;2023-04-25T12:31:45;2.05;;;1.08;;
70253;SDS011;57649;42.968;1.608;2023-04-25T12:34:10;1.27;;;0.70;;
70253;SDS011;57649;42.968;1.608;2023-04-25T12:36:36;1.13;;;0.70;;
70253;SDS011;57649;42.968;1.608;2023-04-25T12:39:01;1.70;;;0.90;;
70253;SDS011;57649;42.968;1.608;2023-04-25T12:41:29;1.50;;;0.88;;
70253;SDS011;57649;42.968;1.608;2023-04-25T12:43:55;1.70;;;0.80;;
70253;SDS011;57649;42.968;1.608;2023-04-25T12:46:20;2.10;;;1.00;;
70253;SDS011;57649;42.968;1.608;2023-04-25T12:48:46;1.33;;;0.60;;
70253;SDS011;57649;42.968;1.608;2023-04-25T12:51:11;1.30;;;0.80;;
70253;SDS011;57649;42.968;1.608;2023-04-25T12:53:37;2.08;;;0.90;;
70253;SDS011;57649;42.968;1.608;2023-04-25T12:56:03;1.92;;;0.90;;
70253;SDS011;57649;42.968;1.608;2023-04-25T12:58:29;1.83;;;0.93;;
70253;SDS011;57649;42.968;1.608;2023-04-25T13:00:55;2.78;;;1.20;;
70253;SDS011;57649;42.968;1.608;2023-04-25T13:03:20;1.40;;;1.00;;
70253;SDS011;57649;42.968;1.608;2023-04-25T13:05:46;1.30;;;0.85;;
70253;SDS011;57649;42.968;1.608;2023-04-25T13:08:12;2.38;;;0.90;;
70253;SDS011;57649;42.968;1.608;2023-04-25T13:10:37;1.85;;;1.10;;
70253;SDS011;57649;42.968;1.608;2023-04-25T13:13:04;0.68;;;0.60;;
70253;SDS011;57649;42.968;1.608;2023-04-25T13:15:29;2.22;;;0.70;;
70253;SDS011;57649;42.968;1.608;2023-04-25T13:17:55;1.17;;;0.70;;
70253;SDS011;57649;42.968;1.608;2023-04-25T13:20:21;1.55;;;0.80;;
70253;SDS011;57649;42.968;1.608;2023-04-25T13:22:47;1.60;;;0.80;;
70253;SDS011;57649;42.968;1.608;2023-04-25T13:25:12;1.33;;;0.82;;
70253;SDS011;57649;42.968;1.608;2023-04-25T13:27:38;0.98;;;0.60;;
70253;SDS011;57649;42.968;1.608;2023-04-25T13:30:05;0.98;;;0.70;;
70253;SDS011;57649;42.968;1.608;2023-04-25T13:32:34;1.50;;;1.17;;
70253;SDS011;57649;42.968;1.608;2023-04-25T13:35:04;0.97;;;0.80;;
70253;SDS011;57649;42.968;1.608;2023-04-25T13:37:36;1.02;;;0.65;;
70253;SDS011;57649;42.968;1.608;2023-04-25T13:40:03;1.98;;;0.93;;
70253;SDS011;57649;42.968;1.608;2023-04-25T13:42:34;1.75;;;1.10;;
70253;SDS011;57649;42.968;1.608;2023-04-25T13:45:01;3.67;;;1.33;;
70253;SDS011;57649;42.968;1.608;2023-04-25T13:47:27;3.55;;;1.25;;
70253;SDS011;57649;42.968;1.608;2023-04-25T13:49:53;7.10;;;1.35;;
70253;SDS011;57649;42.968;1.608;2023-04-25T13:52:19;1.55;;;1.17;;
70253;SDS011;57649;42.968;1.608;2023-04-25T13:54:45;2.17;;;1.38;;
70253;SDS011;57649;42.968;1.608;2023-04-25T13:57:10;6.85;;;1.90;;
70253;SDS011;57649;42.968;1.608;2023-04-25T13:59:36;2.53;;;1.38;;
70253;SDS011;57649;42.968;1.608;2023-04-25T14:02:02;1.23;;;0.85;;
70253;SDS011;57649;42.968;1.608;2023-04-25T14:04:28;1.42;;;0.90;;
70253;SDS011;57649;42.968;1.608;2023-04-25T14:06:53;2.35;;;1.48;;
70253;SDS011;57649;42.968;1.608;2023-04-25T14:09:20;1.63;;;0.85;;
70253;SDS011;57649;42.968;1.608;2023-04-25T14:11:50;2.38;;;1.40;;
70253;SDS011;57649;42.968;1.608;2023-04-25T14:14:18;1.15;;;0.80;;
70253;SDS011;57649;42.968;1.608;2023-04-25T14:16:44;1.45;;;0.70;;
70253;SDS011;57649;42.968;1.608;2023-04-25T14:19:13;0.73;;;0.73;;
70253;SDS011;57649;42.968;1.608;2023-04-25T14:21:42;1.40;;;0.90;;
70253;SDS011;57649;42.968;1.608;2023-04-25T14:24:08;1.10;;;0.85;;
70253;SDS011;57649;42.968;1.608;2023-04-25T14:26:35;1.38;;;0.90;;
70253;SDS011;57649;42.968;1.608;2023-04-25T14:29:01;3.10;;;1.38;;
70253;SDS011;57649;42.968;1.608;2023-04-25T14:31:27;1.00;;;0.80;;
70253;SDS011;57649;42.968;1.608;2023-04-25T14:33:53;2.90;;;0.90;;
70253;SDS011;57649;42.968;1.608;2023-04-25T14:36:18;1.10;;;0.60;;
70253;SDS011;57649;42.968;1.608;2023-04-25T14:38:44;0.65;;;0.57;;
70253;SDS011;57649;42.968;1.608;2023-04-25T14:41:09;0.68;;;0.60;;
70253;SDS011;57649;42.968;1.608;2023-04-25T14:43:35;1.73;;;0.75;;
70253;SDS011;57649;42.968;1.608;2023-04-25T14:46:01;1.35;;;1.00;;
70253;SDS011;57649;42.968;1.608;2023-04-25T14:48:27;1.63;;;0.90;;
70253;SDS011;57649;42.968;1.608;2023-04-25T14:50:53;1.50;;;0.75;;
70253;SDS011;57649;42.968;1.608;2023-04-25T14:53:18;2.10;;;1.27;;
70253;SDS011;57649;42.968;1.608;2023-04-25T14:55:44;1.20;;;1.10;;
70253;SDS011;57649;42.968;1.608;2023-04-25T14:58:10;1.48;;;0.90;;
70253;SDS011;57649;42.968;1.608;2023-04-25T15:00:35;3.15;;;1.60;;
70253;SDS011;57649;42.968;1.608;2023-04-25T15:03:00;2.42;;;1.30;;